< Typhoon 196301 1963 Season Typhoon 196303 >
Typhoon 196302 (POLLY)
General InformationTrack Information on Google Maps || Disaster Info.ResourceGoogle EarthGE AnimationAtom FeedGeoJSON
Detalied Best Track (Time Zone = UTC)
Year Month Day Hour Lat. Long. Pressure (hPa) Wind (kt) Class Image Chart
1963 5 27 00 12.3 135.0 1008 0 2 -- Chart
1963 5 27 06 12.7 134.6 1006 0 2 -- Chart
1963 5 27 12 13.1 134.2 1006 0 2 -- Chart
1963 5 27 18 13.3 133.7 1006 0 2 -- Chart
1963 5 28 00 13.5 133.2 1006 0 2 -- Chart
1963 5 28 06 13.6 132.5 1006 0 2 -- Chart
1963 5 28 12 13.5 132.0 1006 0 2 -- Chart
1963 5 28 18 13.5 131.5 1006 0 2 -- Chart
1963 5 29 00 13.4 130.9 1006 0 2 -- Chart
1963 5 29 06 13.4 130.3 1006 0 2 -- Chart
1963 5 29 12 13.4 129.5 1004 0 2 -- Chart
1963 5 29 18 13.6 128.8 1004 0 2 -- Chart
1963 5 30 00 14.0 128.5 1004 0 2 -- Chart
1963 5 30 06 14.7 128.5 1004 0 2 -- Chart
1963 5 30 12 15.2 129.1 1004 0 2 -- Chart
1963 5 30 18 15.6 129.5 1002 0 2 -- Chart
1963 5 31 00 16.1 130.0 1002 0 2 -- Chart
1963 5 31 06 16.5 130.3 998 0 2 -- Chart
1963 5 31 12 16.8 130.5 998 0 2 -- Chart
1963 5 31 18 17.2 130.8 996 0 2 -- Chart
1963 6 1 00 17.8 131.4 996 0 2 -- Chart
1963 6 1 06 18.5 132.0 988 0 9 -- Chart
1963 6 1 12 19.3 132.2 988 0 9 -- Chart
1963 6 1 18 19.7 132.4 986 0 9 -- Chart
1963 6 2 00 20.4 132.5 985 0 9 -- Chart
1963 6 2 06 20.2 132.8 986 0 9 -- Chart
1963 6 2 12 21.8 133.1 986 0 9 -- Chart
1963 6 2 18 22.4 133.4 984 0 9 -- Chart
1963 6 3 00 23.2 133.6 980 0 9 -- Chart
1963 6 3 06 24.1 133.7 978 0 9 -- Chart
1963 6 3 12 25.1 134.2 978 0 9 -- Chart
1963 6 3 18 26.2 134.7 980 0 9 -- Chart
1963 6 4 00 27.8 135.7 985 0 9 -- Chart
1963 6 4 06 29.0 137.0 985 0 9 -- Chart
1963 6 4 12 30.0 138.0 985 0 9 -- Chart
1963 6 4 18 32.0 140.2 985 0 9 -- Chart
1963 6 5 00 34.0 142.0 985 0 9 -- Chart
1963 6 5 06 36.0 144.1 985 0 9 -- Chart
1963 6 5 12 37.6 147.2 985 0 9 -- Chart
1963 6 5 18 38.2 150.4 985 0 6 -- Chart
1963 6 6 00 38.6 153.6 986 0 6 -- Chart
1963 6 6 06 39.0 158.0 986 0 6 -- Chart
1963 6 6 12 39.2 163.0 986 0 6 -- Chart
1963 6 6 18 39.3 168.3 986 0 6 -- Chart
1963 6 7 00 41.0 175.0 986 0 6 -- Chart
1963 6 7 06 43.0 178.0 978 0 6 -- Chart
1963 6 7 12 45.0 181.0 966 0 6 -- Chart
Japan Meteorological Agency Best Track Data | Correction Date : 1991-07-16
< Typhoon 196301 1963 Season Typhoon 196303 >

Help